sensor_id;sensor_type;location;lat;lon;timestamp;pressure;altitude;pressure_sealevel;temperature;humidity
73171;BME280;61381;50.118;19.962;2022-07-29T00:00:35;98991.63;;;15.64;62.15
73171;BME280;61381;50.118;19.962;2022-07-29T00:05:39;98997.56;;;15.52;62.37
73171;BME280;61381;50.118;19.962;2022-07-29T00:10:40;98985.66;;;15.53;62.15
73171;BME280;61381;50.118;19.962;2022-07-29T00:15:41;98998.56;;;15.56;62.07
73171;BME280;61381;50.118;19.962;2022-07-29T00:20:41;98995.16;;;15.50;62.38
73171;BME280;61381;50.118;19.962;2022-07-29T00:25:42;98997.72;;;15.56;61.92
73171;BME280;61381;50.118;19.962;2022-07-29T00:30:42;98997.06;;;15.50;62.43
73171;BME280;61381;50.118;19.962;2022-07-29T00:35:43;98996.53;;;15.62;61.97
73171;BME280;61381;50.118;19.962;2022-07-29T00:40:44;98999.72;;;15.64;61.85
73171;BME280;61381;50.118;19.962;2022-07-29T00:45:45;98993.34;;;15.60;61.95
73171;BME280;61381;50.118;19.962;2022-07-29T00:50:45;98997.44;;;15.57;62.27
73171;BME280;61381;50.118;19.962;2022-07-29T00:55:46;98987.44;;;15.58;62.10
73171;BME280;61381;50.118;19.962;2022-07-29T01:00:47;98987.94;;;15.60;62.09
73171;BME280;61381;50.118;19.962;2022-07-29T01:05:48;98979.81;;;15.60;62.08
73171;BME280;61381;50.118;19.962;2022-07-29T01:10:49;98978.53;;;15.57;62.27
73171;BME280;61381;50.118;19.962;2022-07-29T01:15:55;98979.81;;;15.60;62.22
73171;BME280;61381;50.118;19.962;2022-07-29T01:32:11;98967.25;;;15.55;62.68
73171;BME280;61381;50.118;19.962;2022-07-29T01:42:32;98974.94;;;15.48;62.88
73171;BME280;61381;50.118;19.962;2022-07-29T01:47:56;98964.75;;;15.45;63.04
73171;BME280;61381;50.118;19.962;2022-07-29T01:53:02;98973.69;;;15.45;62.88
73171;BME280;61381;50.118;19.962;2022-07-29T01:58:05;98979.56;;;15.47;62.95
73171;BME280;61381;50.118;19.962;2022-07-29T02:03:10;98969.72;;;15.29;63.72
73171;BME280;61381;50.118;19.962;2022-07-29T02:08:12;98969.03;;;15.23;63.61
73171;BME280;61381;50.118;19.962;2022-07-29T02:13:15;98954.63;;;15.14;64.02
73171;BME280;61381;50.118;19.962;2022-07-29T02:18:18;98952.56;;;15.11;64.06
73171;BME280;61381;50.118;19.962;2022-07-29T02:23:22;98951.66;;;15.02;64.38
73171;BME280;61381;50.118;19.962;2022-07-29T02:28:26;98947.34;;;15.01;64.51
73171;BME280;61381;50.118;19.962;2022-07-29T02:33:30;98935.66;;;15.05;64.27
73171;BME280;61381;50.118;19.962;2022-07-29T02:38:31;98929.69;;;14.94;64.69
73171;BME280;61381;50.118;19.962;2022-07-29T02:43:34;98939.28;;;14.87;64.75
73171;BME280;61381;50.118;19.962;2022-07-29T02:48:50;98937.13;;;14.75;65.77
73171;BME280;61381;50.118;19.962;2022-07-29T02:53:54;98915.72;;;14.78;65.34
73171;BME280;61381;50.118;19.962;2022-07-29T02:58:58;98918.91;;;14.67;65.87
73171;BME280;61381;50.118;19.962;2022-07-29T03:04:03;98915.94;;;14.68;65.86
73171;BME280;61381;50.118;19.962;2022-07-29T03:09:06;98934.69;;;14.59;66.23
73171;BME280;61381;50.118;19.962;2022-07-29T03:14:08;98933.88;;;14.59;66.10
73171;BME280;61381;50.118;19.962;2022-07-29T03:19:09;98930.53;;;14.67;65.98
73171;BME280;61381;50.118;19.962;2022-07-29T03:24:10;98932.78;;;14.60;66.37
73171;BME280;61381;50.118;19.962;2022-07-29T03:29:10;98932.78;;;14.60;66.39
73171;BME280;61381;50.118;19.962;2022-07-29T03:34:11;98935.38;;;14.51;66.80
73171;BME280;61381;50.118;19.962;2022-07-29T03:39:15;98948.66;;;14.48;67.10
73171;BME280;61381;50.118;19.962;2022-07-29T03:44:17;98938.66;;;14.48;67.32
73171;BME280;61381;50.118;19.962;2022-07-29T03:49:19;98940.47;;;14.53;67.34
73171;BME280;61381;50.118;19.962;2022-07-29T03:54:22;98941.41;;;14.62;67.04
73171;BME280;61381;50.118;19.962;2022-07-29T03:59:23;98951.69;;;14.74;66.74
73171;BME280;61381;50.118;19.962;2022-07-29T04:04:24;98941.19;;;14.86;66.40
73171;BME280;61381;50.118;19.962;2022-07-29T04:09:25;98950.19;;;14.95;66.12
73171;BME280;61381;50.118;19.962;2022-07-29T04:14:26;98953.91;;;15.36;64.09
73171;BME280;61381;50.118;19.962;2022-07-29T04:19:27;98947.53;;;15.91;62.62
73171;BME280;61381;50.118;19.962;2022-07-29T04:24:28;98935.97;;;16.71;59.60
73171;BME280;61381;50.118;19.962;2022-07-29T04:29:28;98931.94;;;17.35;57.89
73171;BME280;61381;50.118;19.962;2022-07-29T04:34:29;98938.31;;;18.00;55.48
73171;BME280;61381;50.118;19.962;2022-07-29T04:39:29;98932.72;;;18.05;55.25
73171;BME280;61381;50.118;19.962;2022-07-29T04:44:30;98940.72;;;18.49;54.32
73171;BME280;61381;50.118;19.962;2022-07-29T04:49:31;98944.88;;;18.85;53.36
73171;BME280;61381;50.118;19.962;2022-07-29T04:54:31;98949.16;;;20.12;49.78
73171;BME280;61381;50.118;19.962;2022-07-29T04:59:32;98932.94;;;20.04;49.82
73171;BME280;61381;50.118;19.962;2022-07-29T05:04:33;98925.44;;;19.46;51.12
73171;BME280;61381;50.118;19.962;2022-07-29T05:09:33;98932.84;;;19.58;50.67
73171;BME280;61381;50.118;19.962;2022-07-29T05:14:34;98930.50;;;20.60;47.11
73171;BME280;61381;50.118;19.962;2022-07-29T05:19:34;98925.44;;;20.71;47.33
73171;BME280;61381;50.118;19.962;2022-07-29T05:24:35;98930.06;;;20.58;47.24
73171;BME280;61381;50.118;19.962;2022-07-29T05:29:35;98916.31;;;21.16;46.24
73171;BME280;61381;50.118;19.962;2022-07-29T05:34:36;98932.75;;;21.20;45.21
73171;BME280;61381;50.118;19.962;2022-07-29T05:39:36;98929.56;;;21.30;45.67
73171;BME280;61381;50.118;19.962;2022-07-29T05:44:38;98920.41;;;21.51;44.68
73171;BME280;61381;50.118;19.962;2022-07-29T05:49:39;98928.72;;;21.99;45.07
73171;BME280;61381;50.118;19.962;2022-07-29T05:54:40;98932.75;;;22.05;44.74
73171;BME280;61381;50.118;19.962;2022-07-29T05:59:41;98927.72;;;21.91;45.22
73171;BME280;61381;50.118;19.962;2022-07-29T06:04:42;98933.03;;;22.16;44.50
73171;BME280;61381;50.118;19.962;2022-07-29T06:09:42;98942.25;;;22.71;43.20
73171;BME280;61381;50.118;19.962;2022-07-29T06:14:43;98941.56;;;22.94;43.01
73171;BME280;61381;50.118;19.962;2022-07-29T06:19:43;98935.03;;;22.98;42.90
73171;BME280;61381;50.118;19.962;2022-07-29T06:24:44;98944.06;;;23.93;41.56
73171;BME280;61381;50.118;19.962;2022-07-29T06:29:45;98934.50;;;24.76;39.98
73171;BME280;61381;50.118;19.962;2022-07-29T06:34:45;98943.13;;;24.28;40.66
73171;BME280;61381;50.118;19.962;2022-07-29T06:39:46;98928.66;;;24.78;40.01
73171;BME280;61381;50.118;19.962;2022-07-29T06:44:46;98946.59;;;24.98;39.74
73171;BME280;61381;50.118;19.962;2022-07-29T06:49:47;98935.78;;;25.70;39.10
73171;BME280;61381;50.118;19.962;2022-07-29T06:54:47;98935.88;;;26.18;38.50
73171;BME280;61381;50.118;19.962;2022-07-29T06:59:48;98924.00;;;24.09;42.05
73171;BME280;61381;50.118;19.962;2022-07-29T07:04:49;98931.06;;;24.10;42.81
73171;BME280;61381;50.118;19.962;2022-07-29T07:09:50;98926.66;;;25.01;41.25
73171;BME280;61381;50.118;19.962;2022-07-29T07:14:50;98930.97;;;24.75;41.58
73171;BME280;61381;50.118;19.962;2022-07-29T07:19:51;98922.28;;;24.70;42.64
73171;BME280;61381;50.118;19.962;2022-07-29T07:24:51;98911.63;;;25.49;40.61
73171;BME280;61381;50.118;19.962;2022-07-29T07:29:52;98912.81;;;26.26;39.00
73171;BME280;61381;50.118;19.962;2022-07-29T07:34:53;98911.72;;;25.97;39.46
73171;BME280;61381;50.118;19.962;2022-07-29T07:39:53;98922.34;;;26.95;37.72
73171;BME280;61381;50.118;19.962;2022-07-29T07:44:54;98923.03;;;26.78;38.08
73171;BME280;61381;50.118;19.962;2022-07-29T07:49:55;98928.00;;;27.24;37.15
73171;BME280;61381;50.118;19.962;2022-07-29T07:54:55;98926.41;;;27.12;37.37
73171;BME280;61381;50.118;19.962;2022-07-29T07:59:56;98924.72;;;27.81;36.09
73171;BME280;61381;50.118;19.962;2022-07-29T08:04:56;98923.78;;;26.26;37.80
73171;BME280;61381;50.118;19.962;2022-07-29T08:09:57;98917.41;;;27.22;36.51
73171;BME280;61381;50.118;19.962;2022-07-29T08:14:57;98916.44;;;27.74;35.67
73171;BME280;61381;50.118;19.962;2022-07-29T08:19:58;98906.38;;;27.19;36.71
73171;BME280;61381;50.118;19.962;2022-07-29T08:24:58;98915.44;;;27.27;36.46
73171;BME280;61381;50.118;19.962;2022-07-29T08:29:59;98910.81;;;26.23;37.80
73171;BME280;61381;50.118;19.962;2022-07-29T08:34:59;98905.38;;;27.59;36.60
73171;BME280;61381;50.118;19.962;2022-07-29T08:40:00;98910.38;;;26.66;37.60
73171;BME280;61381;50.118;19.962;2022-07-29T08:45:00;98924.78;;;27.04;37.61
73171;BME280;61381;50.118;19.962;2022-07-29T08:50:02;98924.31;;;26.91;36.77
73171;BME280;61381;50.118;19.962;2022-07-29T08:55:05;98915.69;;;27.95;35.32
73171;BME280;61381;50.118;19.962;2022-07-29T09:00:07;98919.91;;;29.40;33.04
73171;BME280;61381;50.118;19.962;2022-07-29T09:05:08;98903.91;;;28.85;33.59
73171;BME280;61381;50.118;19.962;2022-07-29T09:10:09;98901.13;;;28.88;33.42
73171;BME280;61381;50.118;19.962;2022-07-29T09:15:10;98905.44;;;29.92;33.25
73171;BME280;61381;50.118;19.962;2022-07-29T09:20:15;98909.03;;;28.86;32.96
73171;BME280;61381;50.118;19.962;2022-07-29T09:25:36;98899.22;;;28.38;35.15
73171;BME280;61381;50.118;19.962;2022-07-29T09:30:55;98901.13;;;28.95;33.88
73171;BME280;61381;50.118;19.962;2022-07-29T09:36:04;98893.94;;;29.23;32.82
73171;BME280;61381;50.118;19.962;2022-07-29T09:41:06;98894.66;;;29.42;33.13
73171;BME280;61381;50.118;19.962;2022-07-29T09:46:13;98887.72;;;28.94;33.74
73171;BME280;61381;50.118;19.962;2022-07-29T09:51:20;98875.56;;;30.29;30.96
73171;BME280;61381;50.118;19.962;2022-07-29T09:56:40;98876.03;;;30.20;31.48
73171;BME280;61381;50.118;19.962;2022-07-29T10:01:41;98869.34;;;29.54;33.01
73171;BME280;61381;50.118;19.962;2022-07-29T10:07:02;98869.34;;;29.54;33.44
73171;BME280;61381;50.118;19.962;2022-07-29T10:12:11;98870.63;;;29.42;34.02
73171;BME280;61381;50.118;19.962;2022-07-29T10:17:12;98870.25;;;30.00;32.72
73171;BME280;61381;50.118;19.962;2022-07-29T10:22:12;98866.38;;;29.16;33.89
73171;BME280;61381;50.118;19.962;2022-07-29T10:27:13;98859.41;;;29.67;32.42
73171;BME280;61381;50.118;19.962;2022-07-29T10:32:26;98849.84;;;30.32;31.52
73171;BME280;61381;50.118;19.962;2022-07-29T10:38:22;98848.59;;;31.16;30.71
73171;BME280;61381;50.118;19.962;2022-07-29T10:42:53;98841.56;;;30.73;31.68
73171;BME280;61381;50.118;19.962;2022-07-29T10:48:05;98827.69;;;31.11;31.23
73171;BME280;61381;50.118;19.962;2022-07-29T10:53:05;98831.56;;;29.44;33.95
73171;BME280;61381;50.118;19.962;2022-07-29T11:08:42;98818.94;;;29.43;34.34
73171;BME280;61381;50.118;19.962;2022-07-29T11:24:14;98812.97;;;28.52;35.93
73171;BME280;61381;50.118;19.962;2022-07-29T11:29:20;98814.59;;;28.24;36.39
73171;BME280;61381;50.118;19.962;2022-07-29T11:34:29;98807.09;;;27.71;38.19
73171;BME280;61381;50.118;19.962;2022-07-29T11:39:30;98816.13;;;28.40;37.73
73171;BME280;61381;50.118;19.962;2022-07-29T11:44:57;98819.16;;;28.92;35.27
73171;BME280;61381;50.118;19.962;2022-07-29T11:49:59;98804.03;;;29.29;34.92
73171;BME280;61381;50.118;19.962;2022-07-29T11:55:02;98807.47;;;30.49;33.58
73171;BME280;61381;50.118;19.962;2022-07-29T12:00:06;98796.47;;;30.00;33.78
73171;BME280;61381;50.118;19.962;2022-07-29T12:05:08;98792.78;;;30.11;32.72
73171;BME280;61381;50.118;19.962;2022-07-29T12:10:09;98784.84;;;30.58;33.03
73171;BME280;61381;50.118;19.962;2022-07-29T12:15:17;98774.56;;;30.17;33.13
73171;BME280;61381;50.118;19.962;2022-07-29T12:20:26;98765.63;;;29.49;34.39
73171;BME280;61381;50.118;19.962;2022-07-29T12:25:33;98765.31;;;30.34;33.86
73171;BME280;61381;50.118;19.962;2022-07-29T12:30:43;98760.31;;;30.22;33.70
73171;BME280;61381;50.118;19.962;2022-07-29T12:35:47;98762.47;;;30.03;33.47
73171;BME280;61381;50.118;19.962;2022-07-29T12:40:49;98758.50;;;30.08;33.27
73171;BME280;61381;50.118;19.962;2022-07-29T12:45:53;98748.91;;;30.16;33.69
73171;BME280;61381;50.118;19.962;2022-07-29T12:51:00;98750.53;;;30.52;33.75
73171;BME280;61381;50.118;19.962;2022-07-29T12:56:01;98743.47;;;30.82;32.58
73171;BME280;61381;50.118;19.962;2022-07-29T13:01:10;98745.78;;;30.14;33.61
73171;BME280;61381;50.118;19.962;2022-07-29T13:06:39;98736.63;;;29.79;35.21
73171;BME280;61381;50.118;19.962;2022-07-29T13:11:49;98729.72;;;30.74;32.79
73171;BME280;61381;50.118;19.962;2022-07-29T13:22:04;98728.78;;;29.18;35.92
73171;BME280;61381;50.118;19.962;2022-07-29T13:27:05;98721.00;;;30.45;34.10
73171;BME280;61381;50.118;19.962;2022-07-29T13:32:06;98725.22;;;30.53;33.78
73171;BME280;61381;50.118;19.962;2022-07-29T13:37:06;98714.94;;;32.34;31.00
73171;BME280;61381;50.118;19.962;2022-07-29T13:42:07;98706.44;;;32.01;30.52
73171;BME280;61381;50.118;19.962;2022-07-29T13:47:08;98706.88;;;31.76;31.74
73171;BME280;61381;50.118;19.962;2022-07-29T13:52:08;98692.28;;;31.24;32.38
73171;BME280;61381;50.118;19.962;2022-07-29T13:57:10;98689.00;;;30.75;33.27
73171;BME280;61381;50.118;19.962;2022-07-29T14:02:11;98685.09;;;31.27;32.41
73171;BME280;61381;50.118;19.962;2022-07-29T14:07:12;98684.50;;;31.16;32.22
73171;BME280;61381;50.118;19.962;2022-07-29T14:12:12;98676.59;;;30.87;33.37
73171;BME280;61381;50.118;19.962;2022-07-29T14:17:14;98671.81;;;31.42;32.63
73171;BME280;61381;50.118;19.962;2022-07-29T14:22:14;98663.53;;;30.60;33.64
73171;BME280;61381;50.118;19.962;2022-07-29T14:27:15;98659.97;;;30.59;33.40
73171;BME280;61381;50.118;19.962;2022-07-29T14:32:15;98672.94;;;28.92;37.55
73171;BME280;61381;50.118;19.962;2022-07-29T14:37:16;98654.16;;;28.76;37.36
73171;BME280;61381;50.118;19.962;2022-07-29T14:42:16;98666.38;;;28.72;37.78
73171;BME280;61381;50.118;19.962;2022-07-29T14:47:17;98638.03;;;28.68;36.82
73171;BME280;61381;50.118;19.962;2022-07-29T14:52:17;98635.09;;;29.49;35.81
73171;BME280;61381;50.118;19.962;2022-07-29T14:57:18;98639.69;;;29.21;36.58
73171;BME280;61381;50.118;19.962;2022-07-29T15:02:19;98627.63;;;29.46;36.07
73171;BME280;61381;50.118;19.962;2022-07-29T15:07:19;98633.44;;;29.10;36.37
73171;BME280;61381;50.118;19.962;2022-07-29T15:12:20;98640.84;;;28.64;37.51
73171;BME280;61381;50.118;19.962;2022-07-29T15:17:20;98640.00;;;28.71;36.88
73171;BME280;61381;50.118;19.962;2022-07-29T15:22:21;98670.25;;;28.81;36.67
73171;BME280;61381;50.118;19.962;2022-07-29T15:27:21;98667.94;;;28.76;36.36
73171;BME280;61381;50.118;19.962;2022-07-29T15:32:22;98665.31;;;28.40;36.86
73171;BME280;61381;50.118;19.962;2022-07-29T15:37:23;98663.47;;;28.08;36.97
73171;BME280;61381;50.118;19.962;2022-07-29T15:42:24;98656.78;;;28.09;37.13
73171;BME280;61381;50.118;19.962;2022-07-29T15:47:24;98670.19;;;27.64;38.84
73171;BME280;61381;50.118;19.962;2022-07-29T15:52:25;98660.78;;;27.44;38.93
73171;BME280;61381;50.118;19.962;2022-07-29T15:57:25;98663.88;;;27.13;39.60
73171;BME280;61381;50.118;19.962;2022-07-29T16:02:26;98660.34;;;27.05;40.06
73171;BME280;61381;50.118;19.962;2022-07-29T16:07:26;98647.38;;;26.92;40.22
73171;BME280;61381;50.118;19.962;2022-07-29T16:12:27;98663.47;;;26.79;40.18
73171;BME280;61381;50.118;19.962;2022-07-29T16:17:27;98679.59;;;26.91;41.31
73171;BME280;61381;50.118;19.962;2022-07-29T16:22:28;98693.69;;;26.82;42.09
73171;BME280;61381;50.118;19.962;2022-07-29T16:27:28;98704.50;;;26.43;45.44
73171;BME280;61381;50.118;19.962;2022-07-29T16:32:29;98711.59;;;24.95;56.79
73171;BME280;61381;50.118;19.962;2022-07-29T16:37:30;98728.66;;;23.05;62.88
73171;BME280;61381;50.118;19.962;2022-07-29T16:42:31;98728.94;;;22.41;75.20
73171;BME280;61381;50.118;19.962;2022-07-29T16:47:31;98725.97;;;22.14;75.27
73171;BME280;61381;50.118;19.962;2022-07-29T16:52:32;98750.59;;;21.50;78.95
73171;BME280;61381;50.118;19.962;2022-07-29T16:57:32;98740.94;;;20.80;81.58
73171;BME280;61381;50.118;19.962;2022-07-29T17:02:33;98751.13;;;20.43;83.35
73171;BME280;61381;50.118;19.962;2022-07-29T17:07:33;98762.13;;;20.22;85.73
73171;BME280;61381;50.118;19.962;2022-07-29T17:12:38;98771.00;;;20.06;87.92
73171;BME280;61381;50.118;19.962;2022-07-29T17:17:39;98772.22;;;19.96;89.38
73171;BME280;61381;50.118;19.962;2022-07-29T17:22:40;98776.50;;;19.73;89.02
73171;BME280;61381;50.118;19.962;2022-07-29T17:27:40;98768.84;;;19.54;91.11
73171;BME280;61381;50.118;19.962;2022-07-29T17:32:41;98775.16;;;19.33;91.33
73171;BME280;61381;50.118;19.962;2022-07-29T17:37:41;98763.59;;;19.24;92.07
73171;BME280;61381;50.118;19.962;2022-07-29T17:42:42;98762.84;;;19.36;92.10
73171;BME280;61381;50.118;19.962;2022-07-29T17:47:43;98755.94;;;19.51;90.90
73171;BME280;61381;50.118;19.962;2022-07-29T17:52:43;98762.50;;;19.37;91.99
73171;BME280;61381;50.118;19.962;2022-07-29T17:57:44;98760.91;;;19.36;91.67
73171;BME280;61381;50.118;19.962;2022-07-29T18:02:44;98758.94;;;19.24;91.86
73171;BME280;61381;50.118;19.962;2022-07-29T18:07:45;98752.59;;;19.20;90.82
73171;BME280;61381;50.118;19.962;2022-07-29T18:12:45;98755.59;;;19.06;92.48
73171;BME280;61381;50.118;19.962;2022-07-29T18:17:46;98762.25;;;18.97;91.78
73171;BME280;61381;50.118;19.962;2022-07-29T18:22:46;98756.88;;;18.67;93.32
73171;BME280;61381;50.118;19.962;2022-07-29T18:27:47;98744.09;;;18.46;93.14
73171;BME280;61381;50.118;19.962;2022-07-29T18:32:47;98745.88;;;18.21;93.54
73171;BME280;61381;50.118;19.962;2022-07-29T18:37:48;98729.66;;;18.12;94.28
73171;BME280;61381;50.118;19.962;2022-07-29T18:42:49;98719.16;;;18.02;94.31
73171;BME280;61381;50.118;19.962;2022-07-29T18:47:49;98710.91;;;17.98;93.83
73171;BME280;61381;50.118;19.962;2022-07-29T18:52:50;98701.84;;;17.94;92.24
73171;BME280;61381;50.118;19.962;2022-07-29T18:57:51;98672.44;;;17.75;92.59
73171;BME280;61381;50.118;19.962;2022-07-29T19:02:51;98663.88;;;17.64;92.85
73171;BME280;61381;50.118;19.962;2022-07-29T19:07:52;98695.63;;;17.55;92.26
73171;BME280;61381;50.118;19.962;2022-07-29T19:12:53;98734.03;;;17.48;92.41
73171;BME280;61381;50.118;19.962;2022-07-29T19:17:53;98741.38;;;17.48;93.03
73171;BME280;61381;50.118;19.962;2022-07-29T19:22:54;98741.38;;;17.57;92.38
73171;BME280;61381;50.118;19.962;2022-07-29T19:27:55;98764.94;;;17.56;92.39
73171;BME280;61381;50.118;19.962;2022-07-29T19:32:55;98817.38;;;17.52;93.96
73171;BME280;61381;50.118;19.962;2022-07-29T19:37:58;98819.63;;;17.41;93.70
73171;BME280;61381;50.118;19.962;2022-07-29T19:42:59;98827.09;;;17.44;94.89
73171;BME280;61381;50.118;19.962;2022-07-29T19:48:00;98802.09;;;17.47;94.06
73171;BME280;61381;50.118;19.962;2022-07-29T19:53:01;98798.78;;;17.41;93.88
73171;BME280;61381;50.118;19.962;2022-07-29T19:58:01;98788.72;;;17.42;94.58
73171;BME280;61381;50.118;19.962;2022-07-29T20:03:03;98770.22;;;17.44;94.76
73171;BME280;61381;50.118;19.962;2022-07-29T20:08:03;98754.31;;;17.42;93.34
73171;BME280;61381;50.118;19.962;2022-07-29T20:13:04;98753.34;;;17.47;94.44
73171;BME280;61381;50.118;19.962;2022-07-29T20:18:05;98741.19;;;17.53;93.43
73171;BME280;61381;50.118;19.962;2022-07-29T20:23:06;98737.56;;;17.49;94.04
73171;BME280;61381;50.118;19.962;2022-07-29T20:28:06;98742.88;;;17.37;94.19
73171;BME280;61381;50.118;19.962;2022-07-29T20:33:07;98737.25;;;17.42;94.00
73171;BME280;61381;50.118;19.962;2022-07-29T20:38:07;98725.16;;;17.39;94.17
73171;BME280;61381;50.118;19.962;2022-07-29T20:43:08;98722.13;;;17.41;93.49
73171;BME280;61381;50.118;19.962;2022-07-29T20:48:08;98732.97;;;17.41;92.57
73171;BME280;61381;50.118;19.962;2022-07-29T20:53:10;98711.94;;;17.38;92.41
73171;BME280;61381;50.118;19.962;2022-07-29T20:58:10;98715.47;;;17.29;93.17
73171;BME280;61381;50.118;19.962;2022-07-29T21:03:11;98711.16;;;17.28;92.79
73171;BME280;61381;50.118;19.962;2022-07-29T21:08:11;98710.56;;;17.23;92.75
73171;BME280;61381;50.118;19.962;2022-07-29T21:13:12;98709.63;;;17.19;92.92
73171;BME280;61381;50.118;19.962;2022-07-29T21:18:12;98696.91;;;17.02;92.67
73171;BME280;61381;50.118;19.962;2022-07-29T21:23:13;98710.59;;;16.97;92.96
73171;BME280;61381;50.118;19.962;2022-07-29T21:28:13;98720.31;;;17.06;91.87
73171;BME280;61381;50.118;19.962;2022-07-29T21:33:14;98722.25;;;16.97;92.32
73171;BME280;61381;50.118;19.962;2022-07-29T21:38:15;98726.22;;;16.91;92.59
73171;BME280;61381;50.118;19.962;2022-07-29T21:43:16;98715.88;;;17.02;92.47
73171;BME280;61381;50.118;19.962;2022-07-29T21:48:18;98723.16;;;17.01;93.14
73171;BME280;61381;50.118;19.962;2022-07-29T21:53:19;98721.91;;;16.99;92.91
73171;BME280;61381;50.118;19.962;2022-07-29T21:58:20;98732.75;;;16.99;92.55
73171;BME280;61381;50.118;19.962;2022-07-29T22:03:21;98738.47;;;16.97;92.86
73171;BME280;61381;50.118;19.962;2022-07-29T22:08:22;98732.75;;;16.99;93.16
73171;BME280;61381;50.118;19.962;2022-07-29T22:13:22;98726.19;;;17.00;93.75
73171;BME280;61381;50.118;19.962;2022-07-29T22:18:23;98731.59;;;17.08;92.71
73171;BME280;61381;50.118;19.962;2022-07-29T22:23:24;98724.91;;;17.15;92.77
73171;BME280;61381;50.118;19.962;2022-07-29T22:28:24;98740.03;;;17.07;93.18
73171;BME280;61381;50.118;19.962;2022-07-29T22:33:25;98735.41;;;17.07;93.51
73171;BME280;61381;50.118;19.962;2022-07-29T22:38:26;98716.97;;;17.01;93.50
73171;BME280;61381;50.118;19.962;2022-07-29T22:43:26;98697.06;;;16.97;93.12
73171;BME280;61381;50.118;19.962;2022-07-29T22:48:27;98692.94;;;16.99;93.36
73171;BME280;61381;50.118;19.962;2022-07-29T22:53:27;98683.91;;;16.86;93.52
73171;BME280;61381;50.118;19.962;2022-07-29T22:58:28;98685.78;;;16.77;94.26
73171;BME280;61381;50.118;19.962;2022-07-29T23:03:28;98660.31;;;16.78;94.73
73171;BME280;61381;50.118;19.962;2022-07-29T23:08:29;98673.06;;;16.60;95.48
73171;BME280;61381;50.118;19.962;2022-07-29T23:13:29;98678.03;;;16.49;96.53
73171;BME280;61381;50.118;19.962;2022-07-29T23:18:30;98668.63;;;16.47;97.03
73171;BME280;61381;50.118;19.962;2022-07-29T23:23:31;98658.59;;;16.56;96.81
73171;BME280;61381;50.118;19.962;2022-07-29T23:28:31;98651.13;;;16.44;97.47
73171;BME280;61381;50.118;19.962;2022-07-29T23:33:32;98641.91;;;16.54;96.17
73171;BME280;61381;50.118;19.962;2022-07-29T23:38:32;98623.13;;;16.57;95.40
73171;BME280;61381;50.118;19.962;2022-07-29T23:43:34;98616.13;;;16.48;95.88
73171;BME280;61381;50.118;19.962;2022-07-29T23:48:35;98606.28;;;16.26;96.69
73171;BME280;61381;50.118;19.962;2022-07-29T23:53:36;98588.78;;;16.23;97.29
73171;BME280;61381;50.118;19.962;2022-07-29T23:58:36;98575.75;;;16.25;96.71
